sensor_id;sensor_type;location;lat;lon;timestamp;temperature;humidity
18339;DHT22;9295;44.484;11.240;2022-08-19T00:01:58;21.60;99.90
18339;DHT22;9295;44.484;11.240;2022-08-19T00:04:29;21.70;99.90
18339;DHT22;9295;44.484;11.240;2022-08-19T00:06:58;21.60;99.90
18339;DHT22;9295;44.484;11.240;2022-08-19T00:09:29;21.60;99.90
18339;DHT22;9295;44.484;11.240;2022-08-19T00:11:58;21.50;99.90
18339;DHT22;9295;44.484;11.240;2022-08-19T00:14:27;21.50;99.90
18339;DHT22;9295;44.484;11.240;2022-08-19T00:16:59;21.60;99.90
18339;DHT22;9295;44.484;11.240;2022-08-19T00:19:30;21.70;99.90
18339;DHT22;9295;44.484;11.240;2022-08-19T00:21:59;21.70;99.90
18339;DHT22;9295;44.484;11.240;2022-08-19T00:24:32;21.70;99.90
18339;DHT22;9295;44.484;11.240;2022-08-19T00:27:01;21.70;99.90
18339;DHT22;9295;44.484;11.240;2022-08-19T00:29:52;21.70;99.90
18339;DHT22;9295;44.484;11.240;2022-08-19T00:32:21;21.70;99.90
18339;DHT22;9295;44.484;11.240;2022-08-19T00:34:53;21.70;99.90
18339;DHT22;9295;44.484;11.240;2022-08-19T00:37:23;21.70;99.90
18339;DHT22;9295;44.484;11.240;2022-08-19T00:39:55;21.60;99.90
18339;DHT22;9295;44.484;11.240;2022-08-19T00:42:24;21.50;99.90
18339;DHT22;9295;44.484;11.240;2022-08-19T00:44:55;21.50;99.90
18339;DHT22;9295;44.484;11.240;2022-08-19T00:47:24;21.40;99.90
18339;DHT22;9295;44.484;11.240;2022-08-19T00:49:56;21.40;99.90
18339;DHT22;9295;44.484;11.240;2022-08-19T00:52:27;21.40;99.90
18339;DHT22;9295;44.484;11.240;2022-08-19T00:55:02;21.30;99.90
18339;DHT22;9295;44.484;11.240;2022-08-19T00:57:35;21.30;99.90
18339;DHT22;9295;44.484;11.240;2022-08-19T01:00:08;21.30;99.90
18339;DHT22;9295;44.484;11.240;2022-08-19T01:02:38;21.30;99.90
18339;DHT22;9295;44.484;11.240;2022-08-19T01:05:13;21.30;99.90
18339;DHT22;9295;44.484;11.240;2022-08-19T01:07:43;21.30;99.90
18339;DHT22;9295;44.484;11.240;2022-08-19T01:10:18;21.40;99.90
18339;DHT22;9295;44.484;11.240;2022-08-19T01:12:48;21.40;99.90
18339;DHT22;9295;44.484;11.240;2022-08-19T01:15:19;21.50;99.90
18339;DHT22;9295;44.484;11.240;2022-08-19T01:17:48;21.50;99.90
18339;DHT22;9295;44.484;11.240;2022-08-19T01:20:22;21.50;99.90
18339;DHT22;9295;44.484;11.240;2022-08-19T01:22:55;21.40;99.90
18339;DHT22;9295;44.484;11.240;2022-08-19T01:25:28;21.40;99.90
18339;DHT22;9295;44.484;11.240;2022-08-19T01:27:58;21.40;99.90
18339;DHT22;9295;44.484;11.240;2022-08-19T01:30:36;21.30;99.90
18339;DHT22;9295;44.484;11.240;2022-08-19T01:33:04;21.40;99.90
18339;DHT22;9295;44.484;11.240;2022-08-19T01:35:35;21.30;99.90
18339;DHT22;9295;44.484;11.240;2022-08-19T01:38:08;21.30;99.90
18339;DHT22;9295;44.484;11.240;2022-08-19T01:40:39;21.30;99.90
18339;DHT22;9295;44.484;11.240;2022-08-19T01:43:10;21.20;99.90
18339;DHT22;9295;44.484;11.240;2022-08-19T01:45:38;21.30;99.90
18339;DHT22;9295;44.484;11.240;2022-08-19T01:48:08;21.20;99.90
18339;DHT22;9295;44.484;11.240;2022-08-19T01:50:36;21.30;99.90
18339;DHT22;9295;44.484;11.240;2022-08-19T01:53:11;21.20;99.90
18339;DHT22;9295;44.484;11.240;2022-08-19T01:55:42;21.30;99.90
18339;DHT22;9295;44.484;11.240;2022-08-19T01:58:15;21.20;99.90
18339;DHT22;9295;44.484;11.240;2022-08-19T02:00:45;21.10;99.90
18339;DHT22;9295;44.484;11.240;2022-08-19T02:03:14;21.20;99.90
18339;DHT22;9295;44.484;11.240;2022-08-19T02:05:43;21.10;99.90
18339;DHT22;9295;44.484;11.240;2022-08-19T02:08:14;21.10;99.90
18339;DHT22;9295;44.484;11.240;2022-08-19T02:10:43;21.00;99.90
18339;DHT22;9295;44.484;11.240;2022-08-19T02:13:13;21.00;99.90
18339;DHT22;9295;44.484;11.240;2022-08-19T02:15:48;21.00;99.90
18339;DHT22;9295;44.484;11.240;2022-08-19T02:18:18;20.90;99.90
18339;DHT22;9295;44.484;11.240;2022-08-19T02:20:54;20.90;99.90
18339;DHT22;9295;44.484;11.240;2022-08-19T02:23:26;21.00;99.90
18339;DHT22;9295;44.484;11.240;2022-08-19T02:25:57;21.00;99.90
18339;DHT22;9295;44.484;11.240;2022-08-19T02:28:28;21.00;99.90
18339;DHT22;9295;44.484;11.240;2022-08-19T02:30:57;21.00;99.90
18339;DHT22;9295;44.484;11.240;2022-08-19T02:33:27;21.00;99.90
18339;DHT22;9295;44.484;11.240;2022-08-19T02:35:56;21.00;99.90
18339;DHT22;9295;44.484;11.240;2022-08-19T02:38:26;21.00;99.90
18339;DHT22;9295;44.484;11.240;2022-08-19T02:40:57;21.00;99.90
18339;DHT22;9295;44.484;11.240;2022-08-19T02:43:28;21.00;99.90
18339;DHT22;9295;44.484;11.240;2022-08-19T02:46:01;21.00;99.90
18339;DHT22;9295;44.484;11.240;2022-08-19T02:48:29;20.90;99.90
18339;DHT22;9295;44.484;11.240;2022-08-19T02:51:00;20.90;99.90
18339;DHT22;9295;44.484;11.240;2022-08-19T02:53:30;20.90;99.90
18339;DHT22;9295;44.484;11.240;2022-08-19T02:55:58;21.00;99.90
18339;DHT22;9295;44.484;11.240;2022-08-19T02:58:27;21.00;99.90
18339;DHT22;9295;44.484;11.240;2022-08-19T03:00:56;21.00;99.90
18339;DHT22;9295;44.484;11.240;2022-08-19T03:03:25;21.00;99.90
18339;DHT22;9295;44.484;11.240;2022-08-19T03:06:04;21.00;99.90
18339;DHT22;9295;44.484;11.240;2022-08-19T03:08:34;21.10;99.90
18339;DHT22;9295;44.484;11.240;2022-08-19T03:11:03;21.10;99.90
18339;DHT22;9295;44.484;11.240;2022-08-19T03:13:32;21.10;99.90
18339;DHT22;9295;44.484;11.240;2022-08-19T03:16:04;21.20;99.90
18339;DHT22;9295;44.484;11.240;2022-08-19T03:18:33;21.20;99.90
18339;DHT22;9295;44.484;11.240;2022-08-19T03:21:03;21.20;99.90
18339;DHT22;9295;44.484;11.240;2022-08-19T03:23:32;21.30;99.90
18339;DHT22;9295;44.484;11.240;2022-08-19T03:26:04;21.30;99.90
18339;DHT22;9295;44.484;11.240;2022-08-19T03:28:43;21.30;99.90
18339;DHT22;9295;44.484;11.240;2022-08-19T03:31:19;21.30;99.90
18339;DHT22;9295;44.484;11.240;2022-08-19T03:34:10;21.30;99.90
18339;DHT22;9295;44.484;11.240;2022-08-19T03:36:40;21.30;99.90
18339;DHT22;9295;44.484;11.240;2022-08-19T03:39:10;21.30;99.90
18339;DHT22;9295;44.484;11.240;2022-08-19T03:41:41;21.30;99.90
18339;DHT22;9295;44.484;11.240;2022-08-19T03:44:15;21.30;99.90
18339;DHT22;9295;44.484;11.240;2022-08-19T03:46:48;21.30;99.90
18339;DHT22;9295;44.484;11.240;2022-08-19T03:49:18;21.20;99.90
18339;DHT22;9295;44.484;11.240;2022-08-19T03:51:55;21.30;99.90
18339;DHT22;9295;44.484;11.240;2022-08-19T03:54:26;21.30;99.90
18339;DHT22;9295;44.484;11.240;2022-08-19T03:56:56;21.30;99.90
18339;DHT22;9295;44.484;11.240;2022-08-19T03:59:27;21.30;99.90
18339;DHT22;9295;44.484;11.240;2022-08-19T04:01:57;21.30;99.90
18339;DHT22;9295;44.484;11.240;2022-08-19T04:04:26;21.40;99.90
18339;DHT22;9295;44.484;11.240;2022-08-19T04:06:58;21.40;99.90
18339;DHT22;9295;44.484;11.240;2022-08-19T04:09:28;21.40;99.90
18339;DHT22;9295;44.484;11.240;2022-08-19T04:11:58;21.40;99.90
18339;DHT22;9295;44.484;11.240;2022-08-19T04:14:29;21.40;99.90
18339;DHT22;9295;44.484;11.240;2022-08-19T04:16:59;21.30;99.90
18339;DHT22;9295;44.484;11.240;2022-08-19T04:19:29;21.40;99.90
18339;DHT22;9295;44.484;11.240;2022-08-19T04:21:58;21.40;99.90
18339;DHT22;9295;44.484;11.240;2022-08-19T04:24:29;21.40;99.90
18339;DHT22;9295;44.484;11.240;2022-08-19T04:27:01;21.40;99.90
18339;DHT22;9295;44.484;11.240;2022-08-19T04:29:30;21.40;99.90
18339;DHT22;9295;44.484;11.240;2022-08-19T04:31:59;21.50;99.90
18339;DHT22;9295;44.484;11.240;2022-08-19T04:34:36;21.50;99.90
18339;DHT22;9295;44.484;11.240;2022-08-19T04:37:28;21.60;99.90
18339;DHT22;9295;44.484;11.240;2022-08-19T04:40:02;21.50;99.90
18339;DHT22;9295;44.484;11.240;2022-08-19T04:42:49;21.50;99.90
18339;DHT22;9295;44.484;11.240;2022-08-19T04:45:18;21.60;99.90
18339;DHT22;9295;44.484;11.240;2022-08-19T04:47:49;21.60;99.90
18339;DHT22;9295;44.484;11.240;2022-08-19T04:50:40;21.60;99.90
18339;DHT22;9295;44.484;11.240;2022-08-19T04:53:10;21.70;99.90
18339;DHT22;9295;44.484;11.240;2022-08-19T04:55:40;21.70;99.90
18339;DHT22;9295;44.484;11.240;2022-08-19T04:58:10;21.70;99.90
18339;DHT22;9295;44.484;11.240;2022-08-19T05:00:43;21.70;99.90
18339;DHT22;9295;44.484;11.240;2022-08-19T05:03:14;21.70;99.90
18339;DHT22;9295;44.484;11.240;2022-08-19T05:05:44;21.70;99.90
18339;DHT22;9295;44.484;11.240;2022-08-19T05:08:17;21.70;99.90
18339;DHT22;9295;44.484;11.240;2022-08-19T05:10:57;21.70;99.90
18339;DHT22;9295;44.484;11.240;2022-08-19T05:13:27;21.70;99.90
18339;DHT22;9295;44.484;11.240;2022-08-19T05:15:59;21.70;99.90
18339;DHT22;9295;44.484;11.240;2022-08-19T05:18:29;21.70;99.90
18339;DHT22;9295;44.484;11.240;2022-08-19T05:21:17;21.60;99.90
18339;DHT22;9295;44.484;11.240;2022-08-19T05:24:05;21.60;99.90
18339;DHT22;9295;44.484;11.240;2022-08-19T05:26:36;21.60;99.90
18339;DHT22;9295;44.484;11.240;2022-08-19T05:29:06;21.50;99.90
18339;DHT22;9295;44.484;11.240;2022-08-19T05:31:38;21.60;99.90
18339;DHT22;9295;44.484;11.240;2022-08-19T05:34:09;21.60;99.90
18339;DHT22;9295;44.484;11.240;2022-08-19T05:36:47;21.50;99.90
18339;DHT22;9295;44.484;11.240;2022-08-19T05:39:18;21.40;99.90
18339;DHT22;9295;44.484;11.240;2022-08-19T05:41:50;21.40;99.90
18339;DHT22;9295;44.484;11.240;2022-08-19T05:44:21;21.40;99.90
18339;DHT22;9295;44.484;11.240;2022-08-19T05:46:50;21.40;99.90
18339;DHT22;9295;44.484;11.240;2022-08-19T05:49:21;21.40;99.90
18339;DHT22;9295;44.484;11.240;2022-08-19T05:51:50;21.30;99.90
18339;DHT22;9295;44.484;11.240;2022-08-19T05:54:19;21.20;99.90
18339;DHT22;9295;44.484;11.240;2022-08-19T05:56:50;21.10;99.90
18339;DHT22;9295;44.484;11.240;2022-08-19T05:59:21;21.00;99.90
18339;DHT22;9295;44.484;11.240;2022-08-19T06:01:52;21.00;99.90
18339;DHT22;9295;44.484;11.240;2022-08-19T06:04:21;20.80;99.90
18339;DHT22;9295;44.484;11.240;2022-08-19T06:06:51;20.80;99.90
18339;DHT22;9295;44.484;11.240;2022-08-19T06:09:21;21.00;99.90
18339;DHT22;9295;44.484;11.240;2022-08-19T06:11:51;21.00;99.90
18339;DHT22;9295;44.484;11.240;2022-08-19T06:14:26;21.00;99.90
18339;DHT22;9295;44.484;11.240;2022-08-19T06:16:55;21.00;99.90
18339;DHT22;9295;44.484;11.240;2022-08-19T06:19:24;21.00;99.90
18339;DHT22;9295;44.484;11.240;2022-08-19T06:21:53;21.10;99.90
18339;DHT22;9295;44.484;11.240;2022-08-19T06:24:23;21.20;99.90
18339;DHT22;9295;44.484;11.240;2022-08-19T06:26:53;21.20;99.90
18339;DHT22;9295;44.484;11.240;2022-08-19T06:29:32;21.20;99.90
18339;DHT22;9295;44.484;11.240;2022-08-19T06:32:02;21.10;99.90
18339;DHT22;9295;44.484;11.240;2022-08-19T06:34:32;21.10;99.90
18339;DHT22;9295;44.484;11.240;2022-08-19T06:37:02;21.00;99.90
18339;DHT22;9295;44.484;11.240;2022-08-19T06:39:35;20.80;99.90
18339;DHT22;9295;44.484;11.240;2022-08-19T06:42:06;20.70;99.90
18339;DHT22;9295;44.484;11.240;2022-08-19T06:44:43;20.70;99.90
18339;DHT22;9295;44.484;11.240;2022-08-19T06:47:17;20.50;99.90
18339;DHT22;9295;44.484;11.240;2022-08-19T06:49:55;20.50;99.90
18339;DHT22;9295;44.484;11.240;2022-08-19T06:52:30;20.40;99.90
18339;DHT22;9295;44.484;11.240;2022-08-19T06:55:00;20.40;99.90
18339;DHT22;9295;44.484;11.240;2022-08-19T06:57:33;20.40;99.90
18339;DHT22;9295;44.484;11.240;2022-08-19T07:00:05;20.40;99.90
18339;DHT22;9295;44.484;11.240;2022-08-19T07:02:39;20.40;99.90
18339;DHT22;9295;44.484;11.240;2022-08-19T07:05:19;20.30;99.90
18339;DHT22;9295;44.484;11.240;2022-08-19T07:07:48;20.20;99.90
18339;DHT22;9295;44.484;11.240;2022-08-19T07:10:17;20.20;99.90
18339;DHT22;9295;44.484;11.240;2022-08-19T07:12:46;20.10;99.90
18339;DHT22;9295;44.484;11.240;2022-08-19T07:15:17;20.10;99.90
18339;DHT22;9295;44.484;11.240;2022-08-19T07:17:48;20.10;99.90
18339;DHT22;9295;44.484;11.240;2022-08-19T07:20:21;20.10;99.90
18339;DHT22;9295;44.484;11.240;2022-08-19T07:22:55;20.00;99.90
18339;DHT22;9295;44.484;11.240;2022-08-19T07:25:24;20.10;99.90
18339;DHT22;9295;44.484;11.240;2022-08-19T07:28:02;20.10;99.90
18339;DHT22;9295;44.484;11.240;2022-08-19T07:30:32;20.20;99.90
18339;DHT22;9295;44.484;11.240;2022-08-19T07:33:00;20.30;99.90
18339;DHT22;9295;44.484;11.240;2022-08-19T07:35:29;20.50;99.90
18339;DHT22;9295;44.484;11.240;2022-08-19T07:37:59;20.50;99.90
18339;DHT22;9295;44.484;11.240;2022-08-19T07:40:30;20.60;99.90
18339;DHT22;9295;44.484;11.240;2022-08-19T07:42:59;20.60;99.90
18339;DHT22;9295;44.484;11.240;2022-08-19T07:45:27;20.70;99.90
18339;DHT22;9295;44.484;11.240;2022-08-19T07:47:57;20.90;99.90
18339;DHT22;9295;44.484;11.240;2022-08-19T07:50:27;21.00;99.90
18339;DHT22;9295;44.484;11.240;2022-08-19T07:52:55;21.10;99.90
18339;DHT22;9295;44.484;11.240;2022-08-19T07:55:26;21.20;99.90
18339;DHT22;9295;44.484;11.240;2022-08-19T07:58:09;21.20;99.90
18339;DHT22;9295;44.484;11.240;2022-08-19T08:00:39;21.20;99.90
18339;DHT22;9295;44.484;11.240;2022-08-19T08:03:10;21.30;99.90
18339;DHT22;9295;44.484;11.240;2022-08-19T08:05:39;21.40;99.90
18339;DHT22;9295;44.484;11.240;2022-08-19T08:08:24;21.60;99.90
18339;DHT22;9295;44.484;11.240;2022-08-19T08:11:16;21.60;99.90
18339;DHT22;9295;44.484;11.240;2022-08-19T08:13:47;21.70;99.90
18339;DHT22;9295;44.484;11.240;2022-08-19T08:16:31;21.80;99.90
18339;DHT22;9295;44.484;11.240;2022-08-19T08:19:07;21.80;99.90
18339;DHT22;9295;44.484;11.240;2022-08-19T08:21:54;22.00;99.90
18339;DHT22;9295;44.484;11.240;2022-08-19T08:24:23;22.50;99.90
18339;DHT22;9295;44.484;11.240;2022-08-19T08:26:55;22.90;99.90
18339;DHT22;9295;44.484;11.240;2022-08-19T08:29:26;23.10;99.90
18339;DHT22;9295;44.484;11.240;2022-08-19T08:32:04;23.40;99.90
18339;DHT22;9295;44.484;11.240;2022-08-19T08:34:42;23.60;99.90
18339;DHT22;9295;44.484;11.240;2022-08-19T08:37:16;24.30;99.90
18339;DHT22;9295;44.484;11.240;2022-08-19T08:39:44;24.80;99.90
18339;DHT22;9295;44.484;11.240;2022-08-19T08:42:22;25.10;99.90
18339;DHT22;9295;44.484;11.240;2022-08-19T08:44:58;25.60;99.90
18339;DHT22;9295;44.484;11.240;2022-08-19T08:47:31;26.10;99.90
18339;DHT22;9295;44.484;11.240;2022-08-19T08:50:08;26.20;99.90
18339;DHT22;9295;44.484;11.240;2022-08-19T08:52:44;25.80;99.90
18339;DHT22;9295;44.484;11.240;2022-08-19T08:55:19;25.60;99.90
18339;DHT22;9295;44.484;11.240;2022-08-19T08:57:53;25.30;99.90
18339;DHT22;9295;44.484;11.240;2022-08-19T09:00:25;24.90;99.90
18339;DHT22;9295;44.484;11.240;2022-08-19T09:02:57;24.70;99.90
18339;DHT22;9295;44.484;11.240;2022-08-19T09:05:38;24.60;99.90
18339;DHT22;9295;44.484;11.240;2022-08-19T09:08:20;24.50;99.90
18339;DHT22;9295;44.484;11.240;2022-08-19T09:10:55;24.40;99.90
18339;DHT22;9295;44.484;11.240;2022-08-19T09:13:30;24.30;99.90
18339;DHT22;9295;44.484;11.240;2022-08-19T09:16:07;24.20;99.90
18339;DHT22;9295;44.484;11.240;2022-08-19T09:18:40;24.10;99.90
18339;DHT22;9295;44.484;11.240;2022-08-19T09:21:10;24.00;99.90
18339;DHT22;9295;44.484;11.240;2022-08-19T09:23:40;23.90;99.90
18339;DHT22;9295;44.484;11.240;2022-08-19T09:26:15;23.90;99.90
18339;DHT22;9295;44.484;11.240;2022-08-19T09:28:48;23.90;99.90
18339;DHT22;9295;44.484;11.240;2022-08-19T09:31:19;24.00;99.90
18339;DHT22;9295;44.484;11.240;2022-08-19T09:33:48;24.20;99.90
18339;DHT22;9295;44.484;11.240;2022-08-19T09:36:21;24.50;99.90
18339;DHT22;9295;44.484;11.240;2022-08-19T09:39:02;24.80;99.90
18339;DHT22;9295;44.484;11.240;2022-08-19T09:41:42;25.10;99.90
18339;DHT22;9295;44.484;11.240;2022-08-19T09:44:15;25.30;99.90
18339;DHT22;9295;44.484;11.240;2022-08-19T09:46:46;25.40;99.90
18339;DHT22;9295;44.484;11.240;2022-08-19T09:49:15;25.40;99.90
18339;DHT22;9295;44.484;11.240;2022-08-19T09:51:49;25.50;99.90
18339;DHT22;9295;44.484;11.240;2022-08-19T09:54:18;25.60;99.90
18339;DHT22;9295;44.484;11.240;2022-08-19T09:56:51;25.70;99.90
18339;DHT22;9295;44.484;11.240;2022-08-19T09:59:20;25.70;99.90
18339;DHT22;9295;44.484;11.240;2022-08-19T10:01:48;25.70;99.90
18339;DHT22;9295;44.484;11.240;2022-08-19T10:04:18;25.70;99.90
18339;DHT22;9295;44.484;11.240;2022-08-19T10:06:50;25.60;99.90
18339;DHT22;9295;44.484;11.240;2022-08-19T10:09:21;25.60;99.90
18339;DHT22;9295;44.484;11.240;2022-08-19T10:11:59;25.50;99.90
18339;DHT22;9295;44.484;11.240;2022-08-19T10:14:32;25.40;99.90
18339;DHT22;9295;44.484;11.240;2022-08-19T10:17:02;25.40;99.90
18339;DHT22;9295;44.484;11.240;2022-08-19T10:19:48;25.30;99.90
18339;DHT22;9295;44.484;11.240;2022-08-19T10:22:23;25.30;99.90
18339;DHT22;9295;44.484;11.240;2022-08-19T10:24:52;25.30;99.90
18339;DHT22;9295;44.484;11.240;2022-08-19T10:27:21;25.20;99.90
18339;DHT22;9295;44.484;11.240;2022-08-19T10:29:52;25.20;99.90
18339;DHT22;9295;44.484;11.240;2022-08-19T10:32:21;25.40;99.90
18339;DHT22;9295;44.484;11.240;2022-08-19T10:35:00;25.40;99.90
18339;DHT22;9295;44.484;11.240;2022-08-19T10:37:35;25.50;99.90
18339;DHT22;9295;44.484;11.240;2022-08-19T10:40:23;25.60;99.90
18339;DHT22;9295;44.484;11.240;2022-08-19T10:42:53;25.60;99.90
18339;DHT22;9295;44.484;11.240;2022-08-19T10:45:23;25.50;99.90
18339;DHT22;9295;44.484;11.240;2022-08-19T10:47:54;25.40;99.90
18339;DHT22;9295;44.484;11.240;2022-08-19T10:50:22;25.30;99.90
18339;DHT22;9295;44.484;11.240;2022-08-19T10:53:13;25.30;99.90
18339;DHT22;9295;44.484;11.240;2022-08-19T10:55:44;25.30;99.90
18339;DHT22;9295;44.484;11.240;2022-08-19T10:58:30;25.40;99.90
18339;DHT22;9295;44.484;11.240;2022-08-19T11:00:59;25.40;99.90
18339;DHT22;9295;44.484;11.240;2022-08-19T11:03:30;25.30;99.90
18339;DHT22;9295;44.484;11.240;2022-08-19T11:06:18;25.30;99.90
18339;DHT22;9295;44.484;11.240;2022-08-19T11:08:50;25.40;99.90
18339;DHT22;9295;44.484;11.240;2022-08-19T11:11:19;25.50;99.90
18339;DHT22;9295;44.484;11.240;2022-08-19T11:13:48;25.50;99.90
18339;DHT22;9295;44.484;11.240;2022-08-19T11:16:20;25.50;99.90
18339;DHT22;9295;44.484;11.240;2022-08-19T11:18:50;25.40;99.90
18339;DHT22;9295;44.484;11.240;2022-08-19T11:21:20;25.40;99.90
18339;DHT22;9295;44.484;11.240;2022-08-19T11:23:52;25.50;99.90
18339;DHT22;9295;44.484;11.240;2022-08-19T11:26:22;25.40;99.90
18339;DHT22;9295;44.484;11.240;2022-08-19T11:28:51;25.40;99.90
18339;DHT22;9295;44.484;11.240;2022-08-19T11:31:23;25.20;99.90
18339;DHT22;9295;44.484;11.240;2022-08-19T11:33:56;25.10;99.90
18339;DHT22;9295;44.484;11.240;2022-08-19T11:36:27;25.20;99.90
18339;DHT22;9295;44.484;11.240;2022-08-19T11:38:57;25.30;99.90
18339;DHT22;9295;44.484;11.240;2022-08-19T11:41:26;25.40;99.90
18339;DHT22;9295;44.484;11.240;2022-08-19T11:43:55;25.40;99.90
18339;DHT22;9295;44.484;11.240;2022-08-19T11:46:30;25.40;99.90
18339;DHT22;9295;44.484;11.240;2022-08-19T11:49:00;25.60;99.90
18339;DHT22;9295;44.484;11.240;2022-08-19T11:51:31;25.60;99.90
18339;DHT22;9295;44.484;11.240;2022-08-19T11:54:02;25.60;99.90
18339;DHT22;9295;44.484;11.240;2022-08-19T11:56:32;25.70;99.90
18339;DHT22;9295;44.484;11.240;2022-08-19T11:59:01;25.80;99.90
18339;DHT22;9295;44.484;11.240;2022-08-19T12:01:31;25.90;99.90
18339;DHT22;9295;44.484;11.240;2022-08-19T12:04:00;26.00;99.90
18339;DHT22;9295;44.484;11.240;2022-08-19T12:06:31;26.10;99.90
18339;DHT22;9295;44.484;11.240;2022-08-19T12:09:05;26.20;99.90
18339;DHT22;9295;44.484;11.240;2022-08-19T12:11:37;26.30;99.90
18339;DHT22;9295;44.484;11.240;2022-08-19T12:14:09;26.30;99.90
18339;DHT22;9295;44.484;11.240;2022-08-19T12:16:41;26.30;99.90
18339;DHT22;9295;44.484;11.240;2022-08-19T12:19:18;26.30;99.90
18339;DHT22;9295;44.484;11.240;2022-08-19T12:21:50;26.30;99.90
18339;DHT22;9295;44.484;11.240;2022-08-19T12:24:27;26.20;99.90
18339;DHT22;9295;44.484;11.240;2022-08-19T12:26:56;26.20;99.90
18339;DHT22;9295;44.484;11.240;2022-08-19T12:29:29;26.30;99.90
18339;DHT22;9295;44.484;11.240;2022-08-19T12:31:58;26.30;99.90
18339;DHT22;9295;44.484;11.240;2022-08-19T12:34:30;26.20;99.90
18339;DHT22;9295;44.484;11.240;2022-08-19T12:37:03;26.20;99.90
18339;DHT22;9295;44.484;11.240;2022-08-19T12:39:36;26.20;99.90
18339;DHT22;9295;44.484;11.240;2022-08-19T12:42:06;26.30;99.90
18339;DHT22;9295;44.484;11.240;2022-08-19T12:44:36;26.30;99.90
18339;DHT22;9295;44.484;11.240;2022-08-19T12:47:08;26.40;99.90
18339;DHT22;9295;44.484;11.240;2022-08-19T12:49:37;26.50;99.90
18339;DHT22;9295;44.484;11.240;2022-08-19T12:52:21;26.60;99.90
18339;DHT22;9295;44.484;11.240;2022-08-19T12:54:52;26.60;99.90
18339;DHT22;9295;44.484;11.240;2022-08-19T12:57:22;26.50;99.90
18339;DHT22;9295;44.484;11.240;2022-08-19T13:00:00;26.50;99.90
18339;DHT22;9295;44.484;11.240;2022-08-19T13:02:31;26.50;99.90
18339;DHT22;9295;44.484;11.240;2022-08-19T13:05:08;26.40;99.90
18339;DHT22;9295;44.484;11.240;2022-08-19T13:07:38;26.40;99.90
18339;DHT22;9295;44.484;11.240;2022-08-19T13:10:10;26.30;99.90
18339;DHT22;9295;44.484;11.240;2022-08-19T13:12:39;26.20;99.90
18339;DHT22;9295;44.484;11.240;2022-08-19T13:15:09;26.20;99.90
18339;DHT22;9295;44.484;11.240;2022-08-19T13:17:41;26.10;99.90
18339;DHT22;9295;44.484;11.240;2022-08-19T13:20:10;26.10;99.90
18339;DHT22;9295;44.484;11.240;2022-08-19T13:22:39;26.10;99.90
18339;DHT22;9295;44.484;11.240;2022-08-19T13:25:09;26.10;99.90
18339;DHT22;9295;44.484;11.240;2022-08-19T13:27:39;26.20;99.90
18339;DHT22;9295;44.484;11.240;2022-08-19T13:30:13;26.20;99.90
18339;DHT22;9295;44.484;11.240;2022-08-19T13:33:00;26.30;99.90
18339;DHT22;9295;44.484;11.240;2022-08-19T13:35:45;26.40;99.90
18339;DHT22;9295;44.484;11.240;2022-08-19T13:38:15;26.40;99.90
18339;DHT22;9295;44.484;11.240;2022-08-19T13:40:47;26.50;99.90
18339;DHT22;9295;44.484;11.240;2022-08-19T13:43:19;26.50;99.90
18339;DHT22;9295;44.484;11.240;2022-08-19T13:45:51;26.50;99.90
18339;DHT22;9295;44.484;11.240;2022-08-19T13:48:25;26.50;99.90
18339;DHT22;9295;44.484;11.240;2022-08-19T13:50:54;26.40;99.90
18339;DHT22;9295;44.484;11.240;2022-08-19T13:53:23;26.50;99.90
18339;DHT22;9295;44.484;11.240;2022-08-19T13:55:53;26.50;99.90
18339;DHT22;9295;44.484;11.240;2022-08-19T13:58:21;26.60;99.90
18339;DHT22;9295;44.484;11.240;2022-08-19T14:00:53;26.60;99.90
18339;DHT22;9295;44.484;11.240;2022-08-19T14:03:22;26.70;99.90
18339;DHT22;9295;44.484;11.240;2022-08-19T14:05:50;26.60;99.90
18339;DHT22;9295;44.484;11.240;2022-08-19T14:08:19;26.60;99.90
18339;DHT22;9295;44.484;11.240;2022-08-19T14:10:48;26.70;99.90
18339;DHT22;9295;44.484;11.240;2022-08-19T14:13:21;26.60;99.90
18339;DHT22;9295;44.484;11.240;2022-08-19T14:15:52;26.60;99.90
18339;DHT22;9295;44.484;11.240;2022-08-19T14:18:21;26.50;99.90
18339;DHT22;9295;44.484;11.240;2022-08-19T14:20:54;26.50;99.90
18339;DHT22;9295;44.484;11.240;2022-08-19T14:23:24;26.50;99.90
18339;DHT22;9295;44.484;11.240;2022-08-19T14:25:53;26.50;99.90
18339;DHT22;9295;44.484;11.240;2022-08-19T14:28:30;26.50;99.90
18339;DHT22;9295;44.484;11.240;2022-08-19T14:30:59;26.50;99.90
18339;DHT22;9295;44.484;11.240;2022-08-19T14:33:27;26.50;99.90
18339;DHT22;9295;44.484;11.240;2022-08-19T14:35:56;26.40;99.90
18339;DHT22;9295;44.484;11.240;2022-08-19T14:38:26;26.40;99.90
18339;DHT22;9295;44.484;11.240;2022-08-19T14:41:13;26.30;99.90
18339;DHT22;9295;44.484;11.240;2022-08-19T14:43:46;26.30;99.90
18339;DHT22;9295;44.484;11.240;2022-08-19T14:46:17;26.30;99.90
18339;DHT22;9295;44.484;11.240;2022-08-19T14:48:48;26.30;99.90
18339;DHT22;9295;44.484;11.240;2022-08-19T14:51:19;26.30;99.90
18339;DHT22;9295;44.484;11.240;2022-08-19T14:53:48;26.30;99.90
18339;DHT22;9295;44.484;11.240;2022-08-19T14:56:19;26.30;99.90
18339;DHT22;9295;44.484;11.240;2022-08-19T14:58:49;26.30;99.90
18339;DHT22;9295;44.484;11.240;2022-08-19T15:01:19;26.30;99.90
18339;DHT22;9295;44.484;11.240;2022-08-19T15:03:49;26.50;99.90
18339;DHT22;9295;44.484;11.240;2022-08-19T15:06:20;26.50;99.90
18339;DHT22;9295;44.484;11.240;2022-08-19T15:08:49;26.60;99.90
18339;DHT22;9295;44.484;11.240;2022-08-19T15:11:21;26.60;99.90
18339;DHT22;9295;44.484;11.240;2022-08-19T15:13:51;26.60;99.90
18339;DHT22;9295;44.484;11.240;2022-08-19T15:16:21;26.70;99.90
18339;DHT22;9295;44.484;11.240;2022-08-19T15:18:52;26.70;99.90
18339;DHT22;9295;44.484;11.240;2022-08-19T15:21:23;26.60;99.90
18339;DHT22;9295;44.484;11.240;2022-08-19T15:23:54;26.50;99.90
18339;DHT22;9295;44.484;11.240;2022-08-19T15:26:24;26.50;99.90
18339;DHT22;9295;44.484;11.240;2022-08-19T15:29:00;26.40;99.90
18339;DHT22;9295;44.484;11.240;2022-08-19T15:31:29;26.40;99.90
18339;DHT22;9295;44.484;11.240;2022-08-19T15:34:05;26.30;99.90
18339;DHT22;9295;44.484;11.240;2022-08-19T15:36:34;26.30;99.90
18339;DHT22;9295;44.484;11.240;2022-08-19T15:39:04;26.20;99.90
18339;DHT22;9295;44.484;11.240;2022-08-19T15:41:33;26.10;99.90
18339;DHT22;9295;44.484;11.240;2022-08-19T15:44:09;26.10;99.90
18339;DHT22;9295;44.484;11.240;2022-08-19T15:46:39;26.10;99.90
18339;DHT22;9295;44.484;11.240;2022-08-19T15:49:09;26.00;99.90
18339;DHT22;9295;44.484;11.240;2022-08-19T15:51:39;26.00;99.90
18339;DHT22;9295;44.484;11.240;2022-08-19T15:54:12;25.90;99.90
18339;DHT22;9295;44.484;11.240;2022-08-19T15:56:41;25.70;99.90
18339;DHT22;9295;44.484;11.240;2022-08-19T15:59:37;25.60;99.90
18339;DHT22;9295;44.484;11.240;2022-08-19T16:02:31;25.60;99.90